createdAt,value
2023-12-08T00:02:54.837Z,360
2023-12-08T00:04:56.270Z,360
2023-12-08T00:08:59.175Z,117
2023-12-08T00:11:00.872Z,360
2023-12-08T00:13:02.640Z,360
2023-12-08T00:15:04.354Z,360
2023-12-08T00:21:08.724Z,360
2023-12-08T00:23:09.884Z,360
2023-12-08T00:27:13.076Z,360
2023-12-08T00:31:15.904Z,360
2023-12-08T00:37:20.863Z,119
2023-12-08T00:41:23.967Z,360
2023-12-08T00:43:25.652Z,360
2023-12-08T00:47:28.422Z,360
2023-12-08T00:51:31.669Z,104
2023-12-08T00:53:32.715Z,360
2023-12-08T00:57:35.655Z,360
2023-12-08T01:03:40.794Z,124
2023-12-08T01:09:44.315Z,360
2023-12-08T01:13:47.652Z,360
2023-12-08T01:19:52.508Z,360
2023-12-08T01:23:55.603Z,360
2023-12-08T01:25:57.452Z,360
2023-12-08T01:30:00.408Z,117
2023-12-08T01:34:12.531Z,132
2023-12-08T01:36:22.778Z,131
2023-12-08T01:40:07.997Z,360
2023-12-08T01:46:12.655Z,360
2023-12-08T01:52:16.400Z,360
2023-12-08T01:56:19.401Z,360
2023-12-08T02:02:24.497Z,360
2023-12-08T02:06:27.502Z,360
2023-12-08T02:08:29.451Z,360
2023-12-08T02:12:32.089Z,360
2023-12-08T02:14:33.988Z,360
2023-12-08T02:18:36.932Z,117
2023-12-08T02:20:38.469Z,360
2023-12-08T02:22:39.575Z,360
2023-12-08T02:28:43.740Z,360
2023-12-08T02:29:27.700Z,360
2023-12-08T02:31:28.739Z,118
2023-12-08T02:37:32.855Z,207
2023-12-08T02:39:33.994Z,207
2023-12-08T02:41:35.743Z,207
2023-12-08T02:45:38.276Z,207
2023-12-08T02:49:41.761Z,207
2023-12-08T02:53:44.795Z,207
2023-12-08T02:55:46.591Z,193
2023-12-08T02:59:49.162Z,360
2023-12-08T03:03:52.233Z,360
2023-12-08T03:05:53.610Z,360
2023-12-08T03:09:55.944Z,360
2023-12-08T03:11:57.908Z,360
2023-12-08T03:16:01.372Z,360
2023-12-08T03:22:05.380Z,360
2023-12-08T03:28:09.653Z,360
2023-12-08T03:32:12.856Z,360
2023-12-08T03:38:17.332Z,360
2023-12-08T03:42:19.596Z,360
2023-12-08T03:46:22.375Z,360
2023-12-08T03:48:23.799Z,360
2023-12-08T03:52:26.782Z,360
2023-12-08T03:54:28.419Z,360
2023-12-08T03:58:31.191Z,360
2023-12-08T04:04:36.179Z,360
2023-12-08T04:06:37.852Z,360
2023-12-08T04:10:41.545Z,360
2023-12-08T04:14:45.355Z,360
2023-12-08T04:20:49.211Z,360
2023-12-08T04:24:52.198Z,360
2023-12-08T04:26:54.103Z,360
2023-12-08T04:30:56.886Z,360
2023-12-08T04:32:58.245Z,360
2023-12-08T04:35:00.072Z,360
2023-12-08T04:37:01.684Z,360
2023-12-08T04:39:02.881Z,360
2023-12-08T04:41:04.723Z,360
2023-12-08T04:47:09.568Z,360
2023-12-08T04:49:11.240Z,360
2023-12-08T04:51:13.148Z,360
2023-12-08T04:55:16.344Z,360
2023-12-08T04:57:18.282Z,360
2023-12-08T04:59:20.188Z,360
2023-12-08T05:03:23.133Z,360
2023-12-08T05:05:24.580Z,360
2023-12-08T05:07:26.641Z,360
2023-12-08T05:13:30.902Z,360
2023-12-08T05:15:32.489Z,360
2023-12-08T05:17:34.162Z,360
2023-12-08T05:21:37.410Z,360
2023-12-08T05:23:38.712Z,31
2023-12-08T05:25:39.713Z,360
2023-12-08T05:29:42.022Z,201
2023-12-08T05:33:44.629Z,186
2023-12-08T05:35:45.588Z,186
2023-12-08T05:39:49.403Z,170
2023-12-08T05:45:54.090Z,170
2023-12-08T05:49:57.230Z,172
2023-12-08T05:51:58.857Z,126
2023-12-08T05:56:01.513Z,360
2023-12-08T06:00:05.369Z,360
2023-12-08T06:02:06.632Z,360
2023-12-08T06:06:09.968Z,360
2023-12-08T06:12:15.790Z,360
2023-12-08T06:18:20.764Z,360
2023-12-08T06:22:23.680Z,360
2023-12-08T06:28:27.963Z,360
2023-12-08T06:32:31.053Z,360
2023-12-08T06:34:32.244Z,360
2023-12-08T06:38:35.299Z,360
2023-12-08T06:42:38.437Z,360
2023-12-08T06:44:39.571Z,360
2023-12-08T06:48:42.844Z,360
2023-12-08T06:54:56.012Z,127
2023-12-08T06:58:49.710Z,360
2023-12-08T07:00:51.710Z,360
2023-12-08T07:04:55.479Z,360
2023-12-08T07:11:00.347Z,360
2023-12-08T07:15:03.035Z,360
2023-12-08T07:17:04.460Z,360
2023-12-08T07:21:08.187Z,360
2023-12-08T07:25:11.493Z,360
2023-12-08T07:27:13.321Z,360
2023-12-08T07:31:16.485Z,360
2023-12-08T07:37:21.206Z,193
2023-12-08T07:41:24.329Z,360
2023-12-08T07:43:25.902Z,360
2023-12-08T07:47:29.160Z,360
2023-12-08T07:49:30.723Z,360
2023-12-08T07:53:33.425Z,360
2023-12-08T07:57:36.315Z,360
2023-12-08T07:59:37.472Z,360
2023-12-08T08:03:40.002Z,360
2023-12-08T08:07:42.523Z,360
2023-12-08T08:09:43.832Z,360
2023-12-08T08:13:46.577Z,360
2023-12-08T08:17:48.950Z,360
2023-12-08T08:19:50.094Z,360
2023-12-08T08:23:52.770Z,360
2023-12-08T08:25:55.382Z,217
2023-12-08T08:27:55.309Z,217
2023-12-08T08:29:57.165Z,217
2023-12-08T08:36:01.783Z,217
2023-12-08T08:42:06.910Z,217
2023-12-08T08:46:09.986Z,217
2023-12-08T08:52:14.925Z,217
2023-12-08T08:56:17.464Z,217
2023-12-08T09:00:20.767Z,217
2023-12-08T09:02:22.619Z,217
2023-12-08T09:06:25.708Z,217
2023-12-08T09:08:28.526Z,217
2023-12-08T09:10:29.206Z,217
2023-12-08T09:12:30.896Z,217
2023-12-08T09:15:16.106Z,217
2023-12-08T09:19:19.520Z,217
2023-12-08T09:23:22.889Z,217
2023-12-08T09:29:28.309Z,217
2023-12-08T09:33:31.996Z,217
2023-12-08T09:37:36.033Z,217
2023-12-08T09:39:36.827Z,217
2023-12-08T09:43:40.078Z,217
2023-12-08T09:45:41.429Z,217
2023-12-08T09:47:43.018Z,217
2023-12-08T09:49:44.215Z,217
2023-12-08T09:55:47.844Z,217
2023-12-08T10:01:51.607Z,217
2023-12-08T10:07:55.579Z,217
2023-12-08T10:09:57.516Z,217
2023-12-08T10:11:59.368Z,217
2023-12-08T10:16:01.565Z,217
2023-12-08T10:18:02.883Z,217
2023-12-08T10:22:05.320Z,217
2023-12-08T10:26:09.045Z,217
2023-12-08T10:28:10.893Z,217
2023-12-08T10:32:13.851Z,217
2023-12-08T10:38:17.762Z,217
2023-12-08T10:42:20.234Z,217
2023-12-08T10:44:21.766Z,217
2023-12-08T10:48:24.802Z,217
2023-12-08T10:54:28.867Z,217
2023-12-08T10:58:32.092Z,217
2023-12-08T11:00:33.240Z,217
2023-12-08T11:04:36.195Z,217
2023-12-08T11:08:38.948Z,217
2023-12-08T11:10:40.715Z,217
2023-12-08T11:14:43.881Z,217
2023-12-08T11:20:47.736Z,217
2023-12-08T11:24:50.363Z,217
2023-12-08T11:26:52.148Z,217
2023-12-08T11:30:56.050Z,217
2023-12-08T11:37:00.628Z,217
2023-12-08T11:43:06.083Z,217
2023-12-08T11:47:07.138Z,217
2023-12-08T11:51:09.520Z,217
2023-12-08T11:53:11.060Z,217
2023-12-08T11:57:13.212Z,217
2023-12-08T12:01:16.834Z,217
2023-12-08T12:03:18.130Z,217
2023-12-08T12:07:20.747Z,217
2023-12-08T12:09:21.930Z,217
2023-12-08T12:11:26.832Z,217
2023-12-08T12:13:25.386Z,217
2023-12-08T12:19:30.283Z,216
2023-12-08T12:21:31.584Z,216
2023-12-08T12:25:35.062Z,216
2023-12-08T12:29:37.367Z,216
2023-12-08T12:35:46.202Z,216
2023-12-08T12:39:46.116Z,216
2023-12-08T12:41:46.900Z,217
2023-12-08T12:45:50.404Z,216
2023-12-08T12:49:53.625Z,217
2023-12-08T12:51:55.545Z,216
2023-12-08T12:55:58.947Z,216
2023-12-08T13:02:03.241Z,217
2023-12-08T13:08:07.280Z,216
2023-12-08T13:12:10.924Z,217
2023-12-08T13:18:15.793Z,217
2023-12-08T13:22:18.216Z,216
2023-12-08T13:24:19.886Z,216
2023-12-08T13:28:22.233Z,216
2023-12-08T13:32:25.521Z,216
2023-12-08T13:34:27.472Z,217
2023-12-08T13:38:30.885Z,217
2023-12-08T13:44:35.612Z,217
2023-12-08T13:50:43.829Z,217
2023-12-08T13:54:43.220Z,217
2023-12-08T14:00:47.410Z,217
2023-12-08T14:06:50.740Z,217
2023-12-08T14:10:53.734Z,217
2023-12-08T14:14:56.730Z,217
2023-12-08T14:16:57.800Z,217
2023-12-08T14:21:00.883Z,217
2023-12-08T14:27:04.518Z,217
2023-12-08T14:31:07.009Z,217
2023-12-08T14:33:08.499Z,217
2023-12-08T14:37:10.868Z,217
2023-12-08T14:43:14.990Z,217
2023-12-08T14:49:18.567Z,217
2023-12-08T14:53:21.990Z,217
2023-12-08T14:59:26.571Z,217
2023-12-08T15:03:29.519Z,217
2023-12-08T15:09:33.693Z,217
2023-12-08T15:13:36.634Z,217
2023-12-08T15:15:43.290Z,217
2023-12-08T15:19:41.675Z,217
2023-12-08T15:25:45.520Z,217
2023-12-08T15:31:50.235Z,217
2023-12-08T15:35:53.405Z,217
2023-12-08T15:41:57.450Z,217
2023-12-08T15:46:00.106Z,217
2023-12-08T15:48:01.875Z,217
2023-12-08T15:52:04.834Z,217
2023-12-08T15:56:07.977Z,217
2023-12-08T15:58:09.747Z,217
2023-12-08T16:02:56.234Z,217
2023-12-08T16:06:59.651Z,217
2023-12-08T16:09:01.278Z,217
2023-12-08T16:13:03.944Z,217
2023-12-08T16:19:08.171Z,217
2023-12-08T16:23:10.964Z,217
2023-12-08T16:25:12.459Z,217
2023-12-08T16:29:15.709Z,217
2023-12-08T16:35:19.407Z,217
2023-12-08T16:41:23.593Z,217
2023-12-08T16:45:26.326Z,217
2023-12-08T16:51:30.480Z,217
2023-12-08T16:55:33.321Z,217
2023-12-08T16:57:35.257Z,217
2023-12-08T17:01:38.285Z,217
2023-12-08T17:05:41.453Z,217
2023-12-08T17:07:43.042Z,217
2023-12-08T17:11:45.774Z,217
2023-12-08T17:17:49.975Z,217
2023-12-08T17:21:53.262Z,217
2023-12-08T17:23:55.266Z,217
2023-12-08T17:27:58.582Z,217
2023-12-08T17:34:08.705Z,217
2023-12-08T17:38:06.201Z,217
2023-12-08T17:40:08.181Z,217
2023-12-08T17:44:11.346Z,217
2023-12-08T17:48:14.023Z,217
2023-12-08T17:50:15.033Z,217
2023-12-08T17:54:18.177Z,217
2023-12-08T18:00:23.127Z,217
2023-12-08T18:04:25.331Z,217
2023-12-08T18:06:27.261Z,217
2023-12-08T18:10:30.223Z,217
2023-12-08T18:16:33.949Z,217
2023-12-08T18:20:37.476Z,217
2023-12-08T18:22:38.512Z,217
2023-12-08T18:26:40.640Z,217
2023-12-08T18:30:42.914Z,217
2023-12-08T18:32:43.975Z,217
2023-12-08T18:36:47.097Z,217
2023-12-08T18:40:50.256Z,217
2023-12-08T18:42:51.555Z,217
2023-12-08T18:46:55.295Z,217
2023-12-08T18:48:56.435Z,217
2023-12-08T18:50:57.733Z,217
2023-12-08T18:52:59.094Z,217
2023-12-08T18:59:03.583Z,217
2023-12-08T19:01:04.930Z,217
2023-12-08T19:05:07.961Z,217
2023-12-08T19:09:10.296Z,217
2023-12-08T19:15:14.087Z,217
2023-12-08T19:19:16.765Z,217
2023-12-08T19:21:18.569Z,217
2023-12-08T19:25:21.586Z,217
2023-12-08T19:29:24.499Z,217
2023-12-08T19:31:25.666Z,217
2023-12-08T19:35:27.976Z,217
2023-12-08T19:41:32.012Z,217
2023-12-08T19:47:35.983Z,217
2023-12-08T19:51:38.939Z,217
2023-12-08T19:57:43.717Z,217
2023-12-08T20:01:47.006Z,217
2023-12-08T20:03:48.314Z,217
2023-12-08T20:07:50.561Z,217
2023-12-08T20:11:53.499Z,217
2023-12-08T20:13:55.341Z,217
2023-12-08T20:17:59.222Z,217
2023-12-08T20:24:02.684Z,217
2023-12-08T20:28:04.916Z,217
2023-12-08T20:30:06.308Z,217
2023-12-08T20:34:09.663Z,217
2023-12-08T20:40:14.110Z,217
2023-12-08T20:44:16.725Z,217
2023-12-08T20:46:17.981Z,217
2023-12-08T20:50:20.834Z,217
2023-12-08T20:54:23.140Z,217
2023-12-08T20:56:24.890Z,217
2023-12-08T21:00:27.984Z,217
2023-12-08T21:04:30.291Z,217
2023-12-08T21:06:32.061Z,217
2023-12-08T21:10:34.884Z,217
2023-12-08T21:12:36.699Z,217
2023-12-08T21:16:40.087Z,217
2023-12-08T21:22:45.394Z,217
2023-12-08T21:26:48.469Z,217
2023-12-08T21:28:50.072Z,217
2023-12-08T21:32:53.677Z,217
2023-12-08T21:36:56.604Z,217
2023-12-08T21:38:58.501Z,217
2023-12-08T21:43:00.938Z,217
2023-12-08T21:47:03.866Z,217
2023-12-08T21:49:05.270Z,217
2023-12-08T21:53:07.787Z,217
2023-12-08T21:55:09.139Z,217
2023-12-08T21:57:10.524Z,217
2023-12-08T21:59:11.562Z,217
2023-12-08T22:05:16.189Z,217
2023-12-08T22:11:20.328Z,217
2023-12-08T22:15:23.267Z,217
2023-12-08T22:21:27.696Z,217
2023-12-08T22:25:30.924Z,217
2023-12-08T22:31:34.643Z,217
2023-12-08T22:35:37.787Z,217
2023-12-08T22:37:39.187Z,217
2023-12-08T22:41:41.703Z,217
2023-12-08T22:48:30.613Z,217
2023-12-08T22:52:32.983Z,217
2023-12-08T22:58:37.793Z,217
2023-12-08T23:02:40.407Z,217
2023-12-08T23:04:42.006Z,217
2023-12-08T23:08:45.565Z,217
2023-12-08T23:12:48.655Z,217
2023-12-08T23:14:50.013Z,217
2023-12-08T23:18:52.881Z,217
2023-12-08T23:24:56.993Z,217
2023-12-08T23:28:59.233Z,217
2023-12-08T23:31:02.626Z,217
2023-12-08T23:35:03.420Z,217
2023-12-08T23:41:07.830Z,217
2023-12-08T23:45:10.594Z,217
2023-12-08T23:47:11.801Z,217
2023-12-08T23:51:14.722Z,217
2023-12-08T23:55:18.271Z,217
2023-12-08T23:57:19.888Z,217
